sensor_id;sensor_type;location;lat;lon;timestamp;pressure;altitude;pressure_sealevel;temperature;humidity
24306;BME280;12423;48.768;8.850;2023-02-28T00:00:53;97617.50;;;-2.07;84.08
24306;BME280;12423;48.768;8.850;2023-02-28T00:02:54;97615.78;;;-2.08;84.53
24306;BME280;12423;48.768;8.850;2023-02-28T00:04:55;97615.00;;;-2.12;85.78
24306;BME280;12423;48.768;8.850;2023-02-28T00:07:01;97614.25;;;-2.15;84.00
24306;BME280;12423;48.768;8.850;2023-02-28T00:09:02;97615.34;;;-2.24;83.46
24306;BME280;12423;48.768;8.850;2023-02-28T00:11:05;97613.38;;;-2.16;84.38
24306;BME280;12423;48.768;8.850;2023-02-28T00:13:07;97611.53;;;-2.12;86.91
24306;BME280;12423;48.768;8.850;2023-02-28T00:15:09;97613.38;;;-2.16;85.36
24306;BME280;12423;48.768;8.850;2023-02-28T00:17:10;97613.38;;;-2.16;85.13
24306;BME280;12423;48.768;8.850;2023-02-28T00:19:11;97617.63;;;-2.12;87.08
24306;BME280;12423;48.768;8.850;2023-02-28T00:21:15;97611.66;;;-2.17;86.52
24306;BME280;12423;48.768;8.850;2023-02-28T00:23:16;97608.50;;;-2.30;85.06
24306;BME280;12423;48.768;8.850;2023-02-28T00:25:20;97610.25;;;-2.30;86.59
24306;BME280;12423;48.768;8.850;2023-02-28T00:27:22;97605.03;;;-2.30;86.75
24306;BME280;12423;48.768;8.850;2023-02-28T00:29:23;97597.91;;;-2.25;87.79
24306;BME280;12423;48.768;8.850;2023-02-28T00:31:24;97608.50;;;-2.30;88.27
24306;BME280;12423;48.768;8.850;2023-02-28T00:33:25;97609.25;;;-2.26;88.68
24306;BME280;12423;48.768;8.850;2023-02-28T00:35:26;97607.63;;;-2.30;88.63
24306;BME280;12423;48.768;8.850;2023-02-28T00:37:27;97601.75;;;-2.38;89.02
24306;BME280;12423;48.768;8.850;2023-02-28T00:39:27;97605.03;;;-2.30;90.79
24306;BME280;12423;48.768;8.850;2023-02-28T00:41:30;97611.13;;;-2.31;90.23
24306;BME280;12423;48.768;8.850;2023-02-28T00:43:36;97613.69;;;-2.28;91.57
24306;BME280;12423;48.768;8.850;2023-02-28T00:45:38;97610.28;;;-2.32;91.74
24306;BME280;12423;48.768;8.850;2023-02-28T00:47:39;97607.78;;;-2.36;91.78
24306;BME280;12423;48.768;8.850;2023-02-28T00:49:40;97605.97;;;-2.34;92.49
24306;BME280;12423;48.768;8.850;2023-02-28T00:51:41;97603.63;;;-2.44;93.24
24306;BME280;12423;48.768;8.850;2023-02-28T00:53:42;97608.81;;;-2.42;92.66
24306;BME280;12423;48.768;8.850;2023-02-28T00:55:43;97600.84;;;-2.37;94.12
24306;BME280;12423;48.768;8.850;2023-02-28T00:57:45;97603.00;;;-2.53;92.00
24306;BME280;12423;48.768;8.850;2023-02-28T00:59:46;97600.09;;;-2.43;94.60
24306;BME280;12423;48.768;8.850;2023-02-28T01:01:47;97602.13;;;-2.54;93.82
24306;BME280;12423;48.768;8.850;2023-02-28T01:03:48;97603.09;;;-2.58;95.02
24306;BME280;12423;48.768;8.850;2023-02-28T01:05:49;97599.59;;;-2.57;95.49
24306;BME280;12423;48.768;8.850;2023-02-28T01:07:51;97601.22;;;-2.53;97.14
24306;BME280;12423;48.768;8.850;2023-02-28T01:09:52;97604.44;;;-2.42;98.39
24306;BME280;12423;48.768;8.850;2023-02-28T01:11:53;97603.59;;;-2.42;98.01
24306;BME280;12423;48.768;8.850;2023-02-28T01:13:54;97605.25;;;-2.39;99.13
24306;BME280;12423;48.768;8.850;2023-02-28T01:15:55;97603.63;;;-2.44;98.38
24306;BME280;12423;48.768;8.850;2023-02-28T01:17:58;97594.69;;;-2.36;100.00
24306;BME280;12423;48.768;8.850;2023-02-28T01:19:58;97596.94;;;-2.55;98.14
24306;BME280;12423;48.768;8.850;2023-02-28T01:22:04;97596.03;;;-2.54;100.00
24306;BME280;12423;48.768;8.850;2023-02-28T01:24:05;97591.88;;;-2.63;99.86
24306;BME280;12423;48.768;8.850;2023-02-28T01:26:18;97595.56;;;-2.70;100.00
24306;BME280;12423;48.768;8.850;2023-02-28T01:28:19;97586.72;;;-2.66;100.00
24306;BME280;12423;48.768;8.850;2023-02-28T01:30:20;97589.19;;;-2.60;100.00
24306;BME280;12423;48.768;8.850;2023-02-28T01:32:21;97585.84;;;-2.65;100.00
24306;BME280;12423;48.768;8.850;2023-02-28T01:34:22;97595.25;;;-2.58;100.00
24306;BME280;12423;48.768;8.850;2023-02-28T01:36:24;97592.09;;;-2.72;100.00
24306;BME280;12423;48.768;8.850;2023-02-28T01:38:25;97589.19;;;-2.60;100.00
24306;BME280;12423;48.768;8.850;2023-02-28T01:40:28;97585.94;;;-2.70;100.00
24306;BME280;12423;48.768;8.850;2023-02-28T01:42:29;97595.50;;;-2.67;100.00
24306;BME280;12423;48.768;8.850;2023-02-28T01:45:20;97587.63;;;-2.67;100.00
24306;BME280;12423;48.768;8.850;2023-02-28T01:47:23;97590.41;;;-2.73;100.00
24306;BME280;12423;48.768;8.850;2023-02-28T01:49:26;97584.25;;;-2.72;100.00
24306;BME280;12423;48.768;8.850;2023-02-28T01:53:43;97587.47;;;-2.61;100.00
24306;BME280;12423;48.768;8.850;2023-02-28T01:55:47;97580.84;;;-2.76;100.00
24306;BME280;12423;48.768;8.850;2023-02-28T01:57:52;97581.63;;;-2.72;100.00
24306;BME280;12423;48.768;8.850;2023-02-28T02:00:00;97585.09;;;-2.70;100.00
24306;BME280;12423;48.768;8.850;2023-02-28T02:02:14;97572.22;;;-2.80;100.00
24306;BME280;12423;48.768;8.850;2023-02-28T02:04:17;97568.50;;;-2.69;100.00
24306;BME280;12423;48.768;8.850;2023-02-28T02:06:18;97568.84;;;-2.83;100.00
24306;BME280;12423;48.768;8.850;2023-02-28T02:08:22;97569.69;;;-2.83;100.00
24306;BME280;12423;48.768;8.850;2023-02-28T02:10:34;97563.56;;;-2.82;100.00
24306;BME280;12423;48.768;8.850;2023-02-28T02:13:05;97566.97;;;-2.78;100.00
24306;BME280;12423;48.768;8.850;2023-02-28T02:15:13;97565.16;;;-2.76;100.00
24306;BME280;12423;48.768;8.850;2023-02-28T02:17:21;97565.19;;;-2.78;100.00
24306;BME280;12423;48.768;8.850;2023-02-28T02:19:53;97560.72;;;-2.72;100.00
24306;BME280;12423;48.768;8.850;2023-02-28T02:27:08;97551.41;;;-2.84;100.00
24306;BME280;12423;48.768;8.850;2023-02-28T02:29:31;97559.22;;;-2.83;100.00
24306;BME280;12423;48.768;8.850;2023-02-28T02:36:23;97562.19;;;-2.97;100.00
24306;BME280;12423;48.768;8.850;2023-02-28T02:41:06;97549.84;;;-2.91;100.00
24306;BME280;12423;48.768;8.850;2023-02-28T02:43:20;97555.91;;;-2.89;100.00
24306;BME280;12423;48.768;8.850;2023-02-28T02:45:37;97553.31;;;-2.91;100.00
24306;BME280;12423;48.768;8.850;2023-02-28T02:47:41;97559.38;;;-2.89;100.00
24306;BME280;12423;48.768;8.850;2023-02-28T02:49:49;97564.59;;;-2.89;100.00
24306;BME280;12423;48.768;8.850;2023-02-28T02:51:53;97562.50;;;-2.74;100.00
24306;BME280;12423;48.768;8.850;2023-02-28T02:54:02;97569.81;;;-2.89;100.00
24306;BME280;12423;48.768;8.850;2023-02-28T02:56:07;97574.78;;;-2.76;100.00
24306;BME280;12423;48.768;8.850;2023-02-28T02:58:12;97560.81;;;-2.75;100.00
24306;BME280;12423;48.768;8.850;2023-02-28T03:00:17;97560.81;;;-2.75;100.00
24306;BME280;12423;48.768;8.850;2023-02-28T03:02:21;97563.59;;;-2.83;100.00
24306;BME280;12423;48.768;8.850;2023-02-28T03:04:25;97564.59;;;-2.89;100.00
24306;BME280;12423;48.768;8.850;2023-02-28T03:06:28;97563.59;;;-2.83;100.00
24306;BME280;12423;48.768;8.850;2023-02-28T03:08:34;97565.13;;;-2.74;100.00
24306;BME280;12423;48.768;8.850;2023-02-28T03:10:42;97570.34;;;-2.74;100.00
24306;BME280;12423;48.768;8.850;2023-02-28T03:12:54;97565.97;;;-2.74;100.00
24306;BME280;12423;48.768;8.850;2023-02-28T03:15:18;97566.97;;;-2.78;100.00
24306;BME280;12423;48.768;8.850;2023-02-28T03:20:04;97567.69;;;-2.71;100.00
24306;BME280;12423;48.768;8.850;2023-02-28T03:26:39;97561.16;;;-2.91;100.00
24306;BME280;12423;48.768;8.850;2023-02-28T03:28:51;97566.13;;;-2.79;100.00
24306;BME280;12423;48.768;8.850;2023-02-28T03:31:14;97561.84;;;-2.83;100.00
24306;BME280;12423;48.768;8.850;2023-02-28T03:33:42;97568.75;;;-2.80;100.00
24306;BME280;12423;48.768;8.850;2023-02-28T03:35:52;97558.28;;;-2.79;100.00
24306;BME280;12423;48.768;8.850;2023-02-28T03:38:07;97560.59;;;-2.68;100.00
24306;BME280;12423;48.768;8.850;2023-02-28T03:40:16;97557.06;;;-2.65;100.00
24306;BME280;12423;48.768;8.850;2023-02-28T03:42:21;97561.41;;;-2.66;100.00
24306;BME280;12423;48.768;8.850;2023-02-28T03:44:28;97561.59;;;-2.72;100.00
24306;BME280;12423;48.768;8.850;2023-02-28T03:46:34;97553.53;;;-2.64;100.00
24306;BME280;12423;48.768;8.850;2023-02-28T03:48:41;97558.91;;;-2.69;100.00
24306;BME280;12423;48.768;8.850;2023-02-28T03:50:46;97560.72;;;-2.72;100.00
24306;BME280;12423;48.768;8.850;2023-02-28T03:53:18;97562.44;;;-2.71;100.00
24306;BME280;12423;48.768;8.850;2023-02-28T03:55:21;97552.34;;;-2.85;100.00
24306;BME280;12423;48.768;8.850;2023-02-28T03:57:27;97564.31;;;-2.76;100.00
24306;BME280;12423;48.768;8.850;2023-02-28T03:59:37;97566.81;;;-2.72;100.00
24306;BME280;12423;48.768;8.850;2023-02-28T04:01:48;97564.75;;;-2.59;100.00
24306;BME280;12423;48.768;8.850;2023-02-28T04:03:49;97567.34;;;-2.59;100.00
24306;BME280;12423;48.768;8.850;2023-02-28T04:05:53;97566.47;;;-2.58;100.00
24306;BME280;12423;48.768;8.850;2023-02-28T04:08:03;97564.09;;;-2.67;100.00
24306;BME280;12423;48.768;8.850;2023-02-28T04:10:05;97565.94;;;-2.72;100.00
24306;BME280;12423;48.768;8.850;2023-02-28T04:12:06;97565.94;;;-2.72;100.00
24306;BME280;12423;48.768;8.850;2023-02-28T04:14:08;97567.59;;;-2.68;100.00
24306;BME280;12423;48.768;8.850;2023-02-28T04:16:10;97564.69;;;-2.57;100.00
24306;BME280;12423;48.768;8.850;2023-02-28T04:18:13;97570.03;;;-2.61;100.00
24306;BME280;12423;48.768;8.850;2023-02-28T04:20:14;97564.69;;;-2.57;100.00
24306;BME280;12423;48.768;8.850;2023-02-28T04:22:15;97561.19;;;-2.56;100.00
24306;BME280;12423;48.768;8.850;2023-02-28T04:24:20;97561.22;;;-2.58;100.00
24306;BME280;12423;48.768;8.850;2023-02-28T04:26:21;97561.41;;;-2.66;100.00
24306;BME280;12423;48.768;8.850;2023-02-28T04:28:22;97555.34;;;-2.66;100.00
24306;BME280;12423;48.768;8.850;2023-02-28T04:30:23;97563.00;;;-2.58;100.00
24306;BME280;12423;48.768;8.850;2023-02-28T04:32:24;97560.47;;;-2.62;100.00
24306;BME280;12423;48.768;8.850;2023-02-28T04:34:26;97564.91;;;-2.65;100.00
24306;BME280;12423;48.768;8.850;2023-02-28T04:36:27;97559.75;;;-2.68;100.00
24306;BME280;12423;48.768;8.850;2023-02-28T04:38:33;97564.63;;;-2.54;100.00
24306;BME280;12423;48.768;8.850;2023-02-28T04:40:35;97559.59;;;-2.62;100.00
24306;BME280;12423;48.768;8.850;2023-02-28T04:42:36;97555.47;;;-2.72;100.00
24306;BME280;12423;48.768;8.850;2023-02-28T04:44:37;97555.91;;;-2.53;100.00
24306;BME280;12423;48.768;8.850;2023-02-28T04:46:38;97555.72;;;-2.46;100.00
24306;BME280;12423;48.768;8.850;2023-02-28T04:48:39;97558.31;;;-2.46;100.00
24306;BME280;12423;48.768;8.850;2023-02-28T04:50:40;97558.47;;;-2.52;100.00
24306;BME280;12423;48.768;8.850;2023-02-28T04:52:41;97557.28;;;-2.40;100.00
24306;BME280;12423;48.768;8.850;2023-02-28T04:54:42;97557.28;;;-2.40;100.00
24306;BME280;12423;48.768;8.850;2023-02-28T04:56:43;97554.75;;;-2.43;100.00
24306;BME280;12423;48.768;8.850;2023-02-28T04:58:44;97556.53;;;-2.44;100.00
24306;BME280;12423;48.768;8.850;2023-02-28T05:00:45;97553.91;;;-2.44;100.00
24306;BME280;12423;48.768;8.850;2023-02-28T05:02:46;97562.56;;;-2.42;100.00
24306;BME280;12423;48.768;8.850;2023-02-28T05:04:47;97564.38;;;-2.44;100.00
24306;BME280;12423;48.768;8.850;2023-02-28T05:06:48;97558.31;;;-2.46;100.00
24306;BME280;12423;48.768;8.850;2023-02-28T05:08:49;97570.25;;;-2.35;100.00
24306;BME280;12423;48.768;8.850;2023-02-28T05:10:50;97571.00;;;-2.30;100.00
24306;BME280;12423;48.768;8.850;2023-02-28T05:12:51;97569.31;;;-2.33;100.00
24306;BME280;12423;48.768;8.850;2023-02-28T05:14:52;97566.97;;;-2.44;100.00
24306;BME280;12423;48.768;8.850;2023-02-28T05:16:53;97565.72;;;-2.29;100.00
24306;BME280;12423;48.768;8.850;2023-02-28T05:18:54;97565.84;;;-2.33;100.00
24306;BME280;12423;48.768;8.850;2023-02-28T05:20:55;97561.41;;;-2.31;100.00
24306;BME280;12423;48.768;8.850;2023-02-28T05:22:57;97576.88;;;-2.22;100.00
24306;BME280;12423;48.768;8.850;2023-02-28T05:24:58;97568.47;;;-2.33;100.00
24306;BME280;12423;48.768;8.850;2023-02-28T05:26:59;97573.72;;;-2.35;100.00
24306;BME280;12423;48.768;8.850;2023-02-28T05:29:00;97567.53;;;-2.31;100.00
24306;BME280;12423;48.768;8.850;2023-02-28T05:31:01;97573.38;;;-2.21;100.00
24306;BME280;12423;48.768;8.850;2023-02-28T05:33:02;97578.50;;;-2.18;100.00
24306;BME280;12423;48.768;8.850;2023-02-28T05:35:04;97571.13;;;-2.35;100.00
24306;BME280;12423;48.768;8.850;2023-02-28T05:37:06;97566.50;;;-2.25;100.00
24306;BME280;12423;48.768;8.850;2023-02-28T05:39:07;97571.03;;;-2.32;100.00
24306;BME280;12423;48.768;8.850;2023-02-28T05:41:13;97564.00;;;-2.30;100.00
24306;BME280;12423;48.768;8.850;2023-02-28T05:43:13;97563.22;;;-2.33;100.00
24306;BME280;12423;48.768;8.850;2023-02-28T05:45:14;97563.31;;;-2.36;100.00
24306;BME280;12423;48.768;8.850;2023-02-28T05:47:15;97564.06;;;-2.33;100.00
24306;BME280;12423;48.768;8.850;2023-02-28T05:49:17;97574.66;;;-2.36;100.00
24306;BME280;12423;48.768;8.850;2023-02-28T05:51:18;97571.88;;;-2.31;100.00
24306;BME280;12423;48.768;8.850;2023-02-28T05:53:19;97575.94;;;-2.19;100.00
24306;BME280;12423;48.768;8.850;2023-02-28T05:55:20;97571.81;;;-2.28;100.00
24306;BME280;12423;48.768;8.850;2023-02-28T05:57:21;97570.88;;;-2.26;100.00
24306;BME280;12423;48.768;8.850;2023-02-28T05:59:22;97567.59;;;-2.34;100.00
24306;BME280;12423;48.768;8.850;2023-02-28T06:01:31;97570.25;;;-2.35;100.00
24306;BME280;12423;48.768;8.850;2023-02-28T06:03:32;97568.31;;;-2.27;100.00
24306;BME280;12423;48.768;8.850;2023-02-28T06:05:33;97569.84;;;-2.20;100.00
24306;BME280;12423;48.768;8.850;2023-02-28T06:07:34;97570.00;;;-2.26;100.00
24306;BME280;12423;48.768;8.850;2023-02-28T06:09:35;97567.31;;;-2.23;100.00
24306;BME280;12423;48.768;8.850;2023-02-28T06:11:37;97568.16;;;-2.21;100.00
24306;BME280;12423;48.768;8.850;2023-02-28T06:13:38;97569.78;;;-2.17;100.00
24306;BME280;12423;48.768;8.850;2023-02-28T06:15:39;97567.69;;;-2.37;100.00
24306;BME280;12423;48.768;8.850;2023-02-28T06:17:41;97576.13;;;-2.26;100.00
24306;BME280;12423;48.768;8.850;2023-02-28T06:19:42;97576.75;;;-2.16;100.00
24306;BME280;12423;48.768;8.850;2023-02-28T06:21:44;97582.84;;;-2.17;100.00
24306;BME280;12423;48.768;8.850;2023-02-28T06:23:44;97578.03;;;-1.99;100.00
24306;BME280;12423;48.768;8.850;2023-02-28T06:25:46;97580.56;;;-1.96;100.00
24306;BME280;12423;48.768;8.850;2023-02-28T06:27:47;97581.97;;;-2.16;100.00
24306;BME280;12423;48.768;8.850;2023-02-28T06:29:49;97587.97;;;-2.12;100.00
24306;BME280;12423;48.768;8.850;2023-02-28T06:31:50;97593.84;;;-2.02;100.00
24306;BME280;12423;48.768;8.850;2023-02-28T06:33:51;97596.25;;;-1.96;100.00
24306;BME280;12423;48.768;8.850;2023-02-28T06:35:52;97586.78;;;-2.00;100.00
24306;BME280;12423;48.768;8.850;2023-02-28T06:37:53;97600.88;;;-2.05;100.00
24306;BME280;12423;48.768;8.850;2023-02-28T06:39:54;97603.66;;;-2.11;100.00
24306;BME280;12423;48.768;8.850;2023-02-28T06:41:56;97598.47;;;-1.81;100.00
24306;BME280;12423;48.768;8.850;2023-02-28T06:43:57;97600.63;;;-1.95;100.00
24306;BME280;12423;48.768;8.850;2023-02-28T06:46:00;97591.94;;;-1.97;100.00
24306;BME280;12423;48.768;8.850;2023-02-28T06:48:01;97589.91;;;-1.86;100.00
24306;BME280;12423;48.768;8.850;2023-02-28T06:50:03;97592.56;;;-1.88;100.00
24306;BME280;12423;48.768;8.850;2023-02-28T06:52:04;97592.75;;;-1.95;100.00
24306;BME280;12423;48.768;8.850;2023-02-28T06:54:05;97602.22;;;-1.90;100.00
24306;BME280;12423;48.768;8.850;2023-02-28T06:56:12;97600.44;;;-1.89;100.00
24306;BME280;12423;48.768;8.850;2023-02-28T06:58:13;97600.50;;;-1.91;100.00
24306;BME280;12423;48.768;8.850;2023-02-28T07:00:19;97599.38;;;-1.82;100.00
24306;BME280;12423;48.768;8.850;2023-02-28T07:02:20;97608.38;;;-1.92;100.00
24306;BME280;12423;48.768;8.850;2023-02-28T07:04:21;97614.97;;;-1.77;100.00
24306;BME280;12423;48.768;8.850;2023-02-28T07:06:23;97612.31;;;-1.76;100.00
24306;BME280;12423;48.768;8.850;2023-02-28T07:08:24;97608.59;;;-1.69;100.00
24306;BME280;12423;48.768;8.850;2023-02-28T07:10:26;97616.66;;;-1.75;100.00
24306;BME280;12423;48.768;8.850;2023-02-28T07:12:26;97615.50;;;-1.64;100.00
24306;BME280;12423;48.768;8.850;2023-02-28T07:14:27;97621.47;;;-1.59;100.00
24306;BME280;12423;48.768;8.850;2023-02-28T07:16:28;97622.25;;;-1.57;100.00
24306;BME280;12423;48.768;8.850;2023-02-28T07:18:30;97618.38;;;-1.44;100.00
24306;BME280;12423;48.768;8.850;2023-02-28T07:20:31;97626.38;;;-1.49;100.00
24306;BME280;12423;48.768;8.850;2023-02-28T07:22:32;97622.69;;;-1.41;100.00
24306;BME280;12423;48.768;8.850;2023-02-28T07:24:33;97629.06;;;-1.50;100.00
24306;BME280;12423;48.768;8.850;2023-02-28T07:26:34;97622.03;;;-1.48;100.00
24306;BME280;12423;48.768;8.850;2023-02-28T07:28:35;97628.97;;;-1.47;100.00
24306;BME280;12423;48.768;8.850;2023-02-28T07:30:36;97613.69;;;-1.33;100.00
24306;BME280;12423;48.768;8.850;2023-02-28T07:32:37;97625.88;;;-1.30;100.00
24306;BME280;12423;48.768;8.850;2023-02-28T07:34:38;97613.63;;;-1.30;100.00
24306;BME280;12423;48.768;8.850;2023-02-28T07:36:39;97623.50;;;-1.39;100.00
24306;BME280;12423;48.768;8.850;2023-02-28T07:38:41;97612.72;;;-1.28;100.00
24306;BME280;12423;48.768;8.850;2023-02-28T07:40:43;97609.13;;;-1.26;100.00
24306;BME280;12423;48.768;8.850;2023-02-28T07:42:44;97618.59;;;-1.20;100.00
24306;BME280;12423;48.768;8.850;2023-02-28T07:44:45;97612.47;;;-1.21;100.00
24306;BME280;12423;48.768;8.850;2023-02-28T07:46:46;97613.34;;;-1.20;100.00
24306;BME280;12423;48.768;8.850;2023-02-28T07:48:47;97611.63;;;-1.21;100.00
24306;BME280;12423;48.768;8.850;2023-02-28T07:50:55;97608.25;;;-1.25;100.00
24306;BME280;12423;48.768;8.850;2023-02-28T07:53:00;97612.34;;;-1.16;100.00
24306;BME280;12423;48.768;8.850;2023-02-28T07:55:01;97610.38;;;-1.09;100.00
24306;BME280;12423;48.768;8.850;2023-02-28T07:57:02;97619.31;;;-1.15;100.00
24306;BME280;12423;48.768;8.850;2023-02-28T07:59:03;97620.16;;;-1.15;100.00
24306;BME280;12423;48.768;8.850;2023-02-28T08:01:06;97619.31;;;-1.15;100.00
24306;BME280;12423;48.768;8.850;2023-02-28T08:03:11;97624.06;;;-1.28;100.00
24306;BME280;12423;48.768;8.850;2023-02-28T08:05:12;97634.53;;;-1.28;100.00
24306;BME280;12423;48.768;8.850;2023-02-28T08:07:14;97626.25;;;-1.14;100.00
24306;BME280;12423;48.768;8.850;2023-02-28T08:09:15;97627.09;;;-1.12;100.00
24306;BME280;12423;48.768;8.850;2023-02-28T08:11:17;97638.66;;;-1.19;100.00
24306;BME280;12423;48.768;8.850;2023-02-28T08:13:18;97631.50;;;-1.14;100.00
24306;BME280;12423;48.768;8.850;2023-02-28T08:15:19;97628.88;;;-1.14;100.00
24306;BME280;12423;48.768;8.850;2023-02-28T08:17:20;97627.91;;;-1.10;100.00
24306;BME280;12423;48.768;8.850;2023-02-28T08:19:21;97636.56;;;-1.08;100.00
24306;BME280;12423;48.768;8.850;2023-02-28T08:21:22;97632.97;;;-1.04;100.00
24306;BME280;12423;48.768;8.850;2023-02-28T08:23:23;97632.19;;;-1.07;100.00
24306;BME280;12423;48.768;8.850;2023-02-28T08:25:24;97633.06;;;-1.07;100.00
24306;BME280;12423;48.768;8.850;2023-02-28T08:27:25;97634.34;;;-0.92;100.00
24306;BME280;12423;48.768;8.850;2023-02-28T08:29:26;97633.28;;;-0.86;100.00
24306;BME280;12423;48.768;8.850;2023-02-28T08:31:27;97633.69;;;-0.99;100.00
24306;BME280;12423;48.768;8.850;2023-02-28T08:33:28;97629.34;;;-1.00;100.00
24306;BME280;12423;48.768;8.850;2023-02-28T08:35:29;97633.78;;;-1.02;100.00
24306;BME280;12423;48.768;8.850;2023-02-28T08:37:30;97642.19;;;-0.90;100.00
24306;BME280;12423;48.768;8.850;2023-02-28T08:39:34;97631.91;;;-0.98;100.00
24306;BME280;12423;48.768;8.850;2023-02-28T08:41:35;97647.06;;;-1.08;100.00
24306;BME280;12423;48.768;8.850;2023-02-28T08:43:36;97648.75;;;-1.05;100.00
24306;BME280;12423;48.768;8.850;2023-02-28T08:45:37;97650.31;;;-1.00;100.00
24306;BME280;12423;48.768;8.850;2023-02-28T08:47:38;97649.22;;;-0.93;100.00
24306;BME280;12423;48.768;8.850;2023-02-28T08:49:39;97643.88;;;-0.89;100.00
24306;BME280;12423;48.768;8.850;2023-02-28T08:51:40;97651.47;;;-0.80;100.00
24306;BME280;12423;48.768;8.850;2023-02-28T08:53:41;97649.13;;;-0.89;100.00
24306;BME280;12423;48.768;8.850;2023-02-28T08:55:42;97654.63;;;-0.69;100.00
24306;BME280;12423;48.768;8.850;2023-02-28T08:57:43;97654.09;;;-0.80;100.00
24306;BME280;12423;48.768;8.850;2023-02-28T08:59:44;97655.09;;;-0.84;100.00
24306;BME280;12423;48.768;8.850;2023-02-28T09:01:45;97657.03;;;-0.91;100.00
24306;BME280;12423;48.768;8.850;2023-02-28T09:03:47;97663.22;;;-0.92;100.00
24306;BME280;12423;48.768;8.850;2023-02-28T09:05:59;97658.09;;;-0.97;100.00
24306;BME280;12423;48.768;8.850;2023-02-28T09:08:00;97662.78;;;-0.78;100.00
24306;BME280;12423;48.768;8.850;2023-02-28T09:10:01;97657.97;;;-0.92;100.00
24306;BME280;12423;48.768;8.850;2023-02-28T09:12:03;97659.75;;;-0.94;100.00
24306;BME280;12423;48.768;8.850;2023-02-28T09:14:04;97664.41;;;-0.74;100.00
24306;BME280;12423;48.768;8.850;2023-02-28T09:16:07;97656.53;;;-0.74;100.00
24306;BME280;12423;48.768;8.850;2023-02-28T09:18:08;97665.41;;;-0.78;100.00
24306;BME280;12423;48.768;8.850;2023-02-28T09:20:10;97664.06;;;-0.63;100.00
24306;BME280;12423;48.768;8.850;2023-02-28T09:22:11;97663.13;;;-0.61;100.00
24306;BME280;12423;48.768;8.850;2023-02-28T09:24:12;97662.91;;;-0.54;100.00
24306;BME280;12423;48.768;8.850;2023-02-28T09:26:16;97656.66;;;-0.50;100.00
24306;BME280;12423;48.768;8.850;2023-02-28T09:28:18;97656.91;;;-0.58;100.00
24306;BME280;12423;48.768;8.850;2023-02-28T09:30:19;97663.44;;;-0.43;100.00
24306;BME280;12423;48.768;8.850;2023-02-28T09:32:20;97658.66;;;-0.30;100.00
24306;BME280;12423;48.768;8.850;2023-02-28T09:34:21;97658.44;;;-0.51;100.00
24306;BME280;12423;48.768;8.850;2023-02-28T09:36:23;97650.16;;;-0.39;100.00
24306;BME280;12423;48.768;8.850;2023-02-28T09:38:24;97648.78;;;-0.50;100.00
24306;BME280;12423;48.768;8.850;2023-02-28T09:40:26;97651.28;;;-0.46;100.00
24306;BME280;12423;48.768;8.850;2023-02-28T09:42:33;97660.44;;;-0.31;100.00
24306;BME280;12423;48.768;8.850;2023-02-28T09:44:40;97664.25;;;-0.41;100.00
24306;BME280;12423;48.768;8.850;2023-02-28T09:46:45;97667.03;;;-0.46;100.00
24306;BME280;12423;48.768;8.850;2023-02-28T09:48:49;97671.22;;;-0.40;100.00
24306;BME280;12423;48.768;8.850;2023-02-28T09:50:55;97665.72;;;-0.32;100.00
24306;BME280;12423;48.768;8.850;2023-02-28T09:53:02;97664.88;;;-0.33;100.00
24306;BME280;12423;48.768;8.850;2023-02-28T09:55:20;97667.50;;;-0.33;100.00
24306;BME280;12423;48.768;8.850;2023-02-28T09:57:35;97668.22;;;-0.28;100.00
24306;BME280;12423;48.768;8.850;2023-02-28T10:02:16;97670.84;;;-0.28;100.00
24306;BME280;12423;48.768;8.850;2023-02-28T10:04:30;97670.31;;;-0.12;100.00
24306;BME280;12423;48.768;8.850;2023-02-28T10:06:42;97665.72;;;-0.06;100.00
24306;BME280;12423;48.768;8.850;2023-02-28T10:08:55;97668.78;;;0.07;100.00
24306;BME280;12423;48.768;8.850;2023-02-28T10:11:01;97678.72;;;-0.01;100.00
24306;BME280;12423;48.768;8.850;2023-02-28T10:13:14;97673.03;;;0.11;100.00
24306;BME280;12423;48.768;8.850;2023-02-28T10:15:17;97665.59;;;0.24;100.00
24306;BME280;12423;48.768;8.850;2023-02-28T10:17:24;97677.78;;;0.27;100.00
24306;BME280;12423;48.768;8.850;2023-02-28T10:21:37;97678.25;;;0.63;100.00
24306;BME280;12423;48.768;8.850;2023-02-28T10:23:39;97688.22;;;0.53;100.00
24306;BME280;12423;48.768;8.850;2023-02-28T10:25:43;97684.44;;;0.61;99.77
24306;BME280;12423;48.768;8.850;2023-02-28T10:27:50;97699.53;;;0.55;99.59
24306;BME280;12423;48.768;8.850;2023-02-28T10:29:56;97691.69;;;0.54;98.49
24306;BME280;12423;48.768;8.850;2023-02-28T10:32:01;97691.59;;;0.57;97.22
24306;BME280;12423;48.768;8.850;2023-02-28T10:34:02;97688.47;;;0.71;97.98
24306;BME280;12423;48.768;8.850;2023-02-28T10:36:05;97689.13;;;0.78;97.05
24306;BME280;12423;48.768;8.850;2023-02-28T10:38:16;97689.75;;;0.84;95.85
24306;BME280;12423;48.768;8.850;2023-02-28T10:40:25;97687.81;;;0.89;94.57
24306;BME280;12423;48.768;8.850;2023-02-28T10:42:29;97676.81;;;0.78;94.56
24306;BME280;12423;48.768;8.850;2023-02-28T10:44:30;97683.72;;;0.81;94.49
24306;BME280;12423;48.768;8.850;2023-02-28T10:46:33;97690.78;;;0.80;94.39
24306;BME280;12423;48.768;8.850;2023-02-28T10:48:38;97689.50;;;0.90;93.85
24306;BME280;12423;48.768;8.850;2023-02-28T10:52:50;97701.25;;;1.05;93.41
24306;BME280;12423;48.768;8.850;2023-02-28T10:55:21;97692.97;;;0.93;92.72
24306;BME280;12423;48.768;8.850;2023-02-28T10:57:23;97686.81;;;0.92;92.50
24306;BME280;12423;48.768;8.850;2023-02-28T10:59:30;97692.28;;;1.11;93.31
24306;BME280;12423;48.768;8.850;2023-02-28T11:03:36;97692.50;;;1.05;91.30
24306;BME280;12423;48.768;8.850;2023-02-28T11:05:37;97688.25;;;1.24;91.46
24306;BME280;12423;48.768;8.850;2023-02-28T11:07:38;97686.19;;;1.33;90.26
24306;BME280;12423;48.768;8.850;2023-02-28T11:09:40;97691.63;;;1.50;90.36
24306;BME280;12423;48.768;8.850;2023-02-28T11:11:46;97690.50;;;1.57;90.34
24306;BME280;12423;48.768;8.850;2023-02-28T11:13:51;97676.47;;;1.79;88.54
24306;BME280;12423;48.768;8.850;2023-02-28T11:15:55;97689.81;;;1.96;88.33
24306;BME280;12423;48.768;8.850;2023-02-28T11:18:05;97688.63;;;2.03;87.69
24306;BME280;12423;48.768;8.850;2023-02-28T11:20:20;97689.72;;;2.20;86.62